Weather observations for the past three days for
Abbeville Chris Crusta Memorial Airport
Metric (Imperial)
Date Time (cdt) Wind (kph) Vis. (km) Weather Sky Cond. Temperature (ºC) Relative Humidity Wind Chill (°C) Heat Index (°C) Pressure Precipitation (cm)
Air Dwpt 6 hour altimeter (cm) sea level (mb) 1 hr 3 hr 6 hr
Max. Min.
07 01:55 SW 11 14.48 Overcast OVC008 25.4 25.4 100% 27 75.84 0.0
07 01:35 SW 9 12.87 Overcast OVC008 25.5 25.5 100% 27 75.84 0.0
07 01:15 SW 13 14.48 Overcast OVC008 25.5 25.5 100% 27 75.87 0.0
07 00:55 SW 11 14.48 Overcast OVC008 25.5 25.5 26.5 25.4 100% 27 75.84 0.0
07 00:35 SW 9 14.48 Overcast OVC008 25.5 25.5 100% 27 75.84 0.0
07 00:15 SW 11 14.48 Overcast OVC008 25.5 25.5 100% 27 75.84 0.0
06 23:55 SW 11 14.48 Overcast OVC009 25.5 25.5 100% 27 75.84 0.0
06 23:35 S 15 14.48 Overcast OVC009 25.5 25.5 100% 27 75.84 0.0
06 23:15 SW 9 14.48 Overcast OVC009 25.6 25.6 100% 27 75.84 0.0
06 22:55 SW 13 14.48 Overcast OVC008 25.5 25.5 100% 27 75.84 0.0
06 22:35 S 17 14.48 Overcast OVC008 25.5 25.5 100% 27 75.84 0.0
06 22:15 S 13 14.48 Overcast OVC008 25.5 25.5 100% 27 75.82 0.0
06 21:55 S 17 14.48 Overcast OVC008 25.4 25.4 100% 27 75.79 0.0
06 21:35 S 15 14.48 Overcast OVC008 25.4 25.4 100% 27 75.79 0.0
06 21:15 S 15 12.87 Overcast OVC008 25.4 25.4 100% 27 75.77 0.0
06 20:55 S 19 14.48 Partly Cloudy FEW009 SCT021 25.5 25.5 100% 27 75.74 0.0
06 20:35 S 19 14.48 Mostly Cloudy FEW009 BKN021 25.7 25.7 100% 27 75.74 0.0
06 20:15 S 20 14.48 Mostly Cloudy FEW010 BKN021 25.8 25.6 99% 28 75.74 0.0
06 19:55 S 20 14.48 A Few Clouds FEW010 25.9 25.5 98% 28 75.72 0.0
06 19:35 S 22 14.48 A Few Clouds FEW010 26.1 25.4 96% 29 75.72 0.0
06 19:15 S 24 14.48 A Few Clouds FEW012 26.2 25.4 95% 29 75.69 0.0
06 18:55 S 22 14.48 Mostly Cloudy BKN012 26.6 25.5 29.5 26.6 94% 30 75.72 0.0
06 18:35 S 22 14.48 Overcast OVC012 26.7 25.5 93% 30 75.72 0.0
06 18:15 S 22 16.09 Mostly Cloudy BKN014 27.1 25.5 91% 31 75.72 0.0
06 17:55 S 20 14.48 Overcast BKN015 OVC023 27.2 25.4 90% 31 75.72 0.0
06 17:35 S 19 16.09 Overcast BKN014 OVC024 27.1 25.5 91% 31 75.72 0.0
06 17:15 S 20 16.09 Overcast BKN014 OVC023 27.2 25.6 91% 31 75.72 0.0
06 16:55 S 15 16.09 Mostly Cloudy BKN015 BKN023 27.2 25.7 92% 31 75.72 0.0
06 16:35 S 17 14.48 Overcast BKN015 OVC023 27.1 25.5 91% 31 75.72 0.0
06 16:15 S 19 9.66 Fog/Mist BKN012 BKN019 OVC024 27 25.7 93% 31 75.74 0.0
06 15:55 SE 19 16.09 Mostly Cloudy BKN017 BKN025 27.1 25.6 92% 31 75.74 0.0
06 15:35 S 19 16.09 Mostly Cloudy FEW013 SCT020 BKN026 27.3 25.6 90% 32 75.74 0.0
06 15:15 SE 20 16.09 Partly Cloudy FEW012 SCT025 27.8 25.7 88% 33 75.77 0.0
06 14:55 S 19 16.09 Partly Cloudy FEW021 SCT027 27.7 25.7 89% 33 75.79 0.0
06 14:35 S 15 16.09 Mostly Cloudy SCT016 BKN023 BKN028 27.8 25.4 87% 33 75.82 0.0
06 14:15 S 13 16.09 Mostly Cloudy BKN016 BKN023 28 25.5 86% 33 75.84 0.0
06 13:55 S 17 16.09 Mostly Cloudy BKN018 28.8 25.6 83% 35 75.84 0.0
06 13:35 S 19 G 28 16.09 Partly Cloudy SCT019 29.5 25.7 80% 36 75.87 0.0
06 13:15 S 20 16.09 Partly Cloudy FEW020 SCT290 SCT360 28.9 25.1 80% 34 75.9 0.0
06 12:55 S 15 16.09 Partly Cloudy SCT020 28.7 25.3 28.7 24.1 82% 34 75.92 0.0
06 12:35 S 19 16.09 Mostly Cloudy SCT019 BKN027 28.1 25 83% 33 75.92 0.0
06 12:15 S 19 16.09 Mostly Cloudy SCT019 BKN027 28.4 25.1 82% 34 75.92 0.0
06 11:55 S 17 16.09 Mostly Cloudy SCT018 SCT023 BKN030 28 25 84% 33 75.95 0.0
06 11:35 S 17 16.09 Mostly Cloudy SCT020 BKN041 27.7 24.7 84% 32 75.95 0.0
06 11:15 S 19 16.09 Partly Cloudy FEW018 SCT042 SCT370 27.5 24.8 85% 32 75.95 0.0
06 10:55 S 13 16.09 Mostly Cloudy FEW017 BKN042 27.5 25 86% 32 75.92 0.0
06 10:35 S 20 G 28 16.09 Mostly Cloudy FEW015 BKN041 27.1 25.2 89% 31 75.9 0.0
06 10:15 S 17 16.09 Overcast FEW017 SCT031 OVC039 26.7 25.5 93% 30 75.9 0.0
06 09:55 S 15 12.87 Overcast BKN027 OVC033 25.6 25.3 98% 27 75.9 0.0
06 09:35 S 11 14.48 Overcast BKN023 OVC032 25.4 25.2 99% 27 75.9 0.0
06 09:15 S 17 14.48 Mostly Cloudy SCT024 BKN033 25.3 25.3 100% 26 75.9 0.0
06 08:55 S 19 14.48 Partly Cloudy SCT009 SCT025 25.1 25.1 100% 26 75.87 0.0
06 08:35 S 17 14.48 Partly Cloudy FEW009 SCT043 25.1 25.1 100% 26 75.87 0.0
06 08:15 S 17 14.48 Partly Cloudy SCT043 25 25 100% 25 75.84 0.0
06 07:55 S 17 14.48 A Few Clouds FEW007 24.6 24.6 100% 24 75.84 0.0
06 07:35 S 17 14.48 Partly Cloudy FEW007 SCT045 24.5 24.5 100% 24 75.82 0.0
06 07:15 S 20 14.48 A Few Clouds FEW049 24.4 24.4 100% 24 75.82 0.0
06 06:55 S 17 14.48 A Few Clouds FEW050 23.9 23.9 23.9 23.3 100% 22 75.79 0.0
06 06:35 S 15 14.48 Mostly Cloudy SCT006 BKN050 23.7 23.7 100% 75.79 0.0
06 06:15 S 15 14.48 Overcast OVC006 23.7 23.7 100% 75.77 0.0
06 05:55 S 11 16.09 Overcast BKN007 OVC050 23.6 23.6 100% 75.77 0.0
06 05:35 S 11 16.09 Mostly Cloudy SCT007 BKN050 23.6 23.6 100% 75.79 0.0
06 05:15 S 9 16.09 Mostly Cloudy BKN008 BKN050 23.6 23.6 100% 75.79 0.0
06 04:55 S 9 16.09 Overcast OVC009 23.7 23.7 100% 75.79 0.0
06 04:35 S 7 16.09 Overcast OVC010 23.7 23.7 100% 75.79 0.0
06 04:15 S 7 16.09 Overcast OVC011 23.6 23.6 100% 75.79 0.0
06 03:55 SE 7 16.09 Overcast OVC010 23.7 23.7 100% 75.79 0.0
06 03:35 SE 9 16.09 Overcast BKN009 OVC015 23.7 23.7 100% 75.79 0.0
06 03:15 S 9 16.09 Overcast BKN012 OVC021 23.6 23.6 100% 75.79 0.0
06 02:55 S 9 16.09 Overcast OVC011 23.6 23.6 100% 75.82 0.0
06 02:35 S 9 16.09 Overcast OVC011 23.5 23.5 100% 75.79 0.0
06 02:15 S 9 16.09 Overcast BKN011 BKN021 OVC039 23.4 23.4 100% 75.79 0.0
06 01:55 S 9 16.09 Mostly Cloudy SCT009 BKN020 BKN039 23.3 23.3 100% 75.79 0.0
06 01:35 S 11 14.48 Overcast BKN010 OVC019 23.4 23.4 100% 75.79 0.0
06 00:55 S 11 16.09 Overcast SCT013 OVC025 23.4 23.4 24.9 23.1 100% 75.82 0.0
06 00:35 S 15 16.09 Mostly Cloudy SCT015 BKN023 23.2 23.2 100% 75.82 0.0
06 00:15 S 17 16.09 Mostly Cloudy BKN015 23.1 23.1 100% 75.82 0.0
05 23:55 S 17 16.09 Mostly Cloudy BKN015 BKN022 23.3 23.3 100% 75.82 0.0
05 23:35 S 17 16.09 Mostly Cloudy BKN015 BKN021 23.3 23.3 100% 75.82 0.0
05 23:15 S 13 16.09 Overcast BKN015 OVC022 23.4 23.4 100% 75.82 0.0
05 22:55 S 19 16.09 Mostly Cloudy BKN014 BKN022 23.5 23.5 100% 75.82 0.0
05 22:35 S 15 16.09 Mostly Cloudy BKN013 BKN021 23.5 23.4 99% 75.82 0.0
05 22:15 S 15 16.09 Partly Cloudy SCT013 23.3 23.3 100% 75.82 0.0
05 21:55 S 17 16.09 Mostly Cloudy BKN012 23.4 23.4 100% 75.79 0.0
05 21:35 S 19 14.48 Overcast OVC011 23.5 23.5 100% 75.77 0.0
05 21:15 S 15 14.48 Mostly Cloudy BKN011 23.5 23.5 100% 75.77 0.0
05 20:55 S 9 14.48 Fair CLR 23.3 23 98% 75.74 0.0
05 20:35 S 11 16.09 Fair CLR 23.4 22.9 97% 75.74 0.0
05 20:15 S 11 16.09 Fair CLR 23.7 22.8 95% 75.72 0.0
05 19:55 S 15 16.09 Fair CLR 24 22.8 93% 23 75.74 0.0
05 19:35 S 17 16.09 Fair CLR 24.2 22.7 91% 24 75.72 0.0
05 19:15 S 15 14.48 Fair CLR 24.7 22.7 89% 25 75.72 0.0
05 18:55 S 19 G 33 16.09 Partly Cloudy SCT018 25 22.9 27.6 25 88% 26 75.72 0.0
05 18:35 S 20 G 31 14.48 Overcast BKN020 OVC029 25.5 23 86% 27 75.72 0.0
05 18:15 S 22 G 33 16.09 Overcast BKN016 BKN022 BKN031 OVC060 25.7 23.1 86% 27 75.74 0.0
05 17:55 S 19 14.48 Overcast BKN016 BKN024 OVC060 25.5 23.1 87% 27 75.74 0.0
05 17:35 S 24 14.48 Overcast SCT017 BKN025 BKN039 OVC065 25.7 23 85% 27 75.74 0.0
05 17:15 S 19 16.09 Overcast SCT017 BKN025 BKN035 OVC042 26.1 23.1 84% 28 75.77 0.0
05 16:55 S 22 G 33 16.09 Mostly Cloudy SCT017 SCT027 BKN035 26.2 23.4 85% 28 75.77 0.0
05 16:35 S 26 16.09 Mostly Cloudy FEW019 SCT025 BKN036 BKN065 26.4 23.5 84% 29 75.77 0.0
05 16:15 S 28 G 35 16.09 Mostly Cloudy FEW018 SCT024 BKN036 BKN065 26.3 23.1 83% 28 75.79 0.0
05 15:55 S 28 16.09 Mostly Cloudy FEW021 SCT027 BKN038 26.7 23.2 81% 29 75.79 0.0
05 15:35 S 24 16.09 Mostly Cloudy FEW027 BKN039 27 23.2 80% 30 75.79 0.0
05 15:15 S 22 16.09 Mostly Cloudy BKN037 27.5 23.3 78% 31 75.82 0.0
05 14:55 S 22 16.09 Overcast FEW023 BKN035 OVC043 26.4 22.7 80% 28 75.82 0.0
05 14:35 S 24 16.09 Mostly Cloudy SCT023 BKN038 26.3 22.5 80% 28 75.84 0.0
05 14:15 S 20 16.09 Overcast SCT025 OVC035 26.3 22.5 80% 28 75.84 0.0
05 13:55 S 24 16.09 Mostly Cloudy SCT023 BKN029 BKN035 26.6 22.5 78% 29 75.84 0.0
05 13:35 S 20 16.09 Overcast FEW023 BKN033 OVC350 26.6 22.6 79% 29 75.84 0.0
05 13:15 S 26 16.09 Overcast SCT023 BKN032 OVC039 27 22.6 77% 29 75.84 0.0
05 12:55 S 24 16.09 Mostly Cloudy SCT026 BKN033 26.8 22.2 27.9 19.1 76% 29 75.84 0.0
05 12:35 S 26 16.09 Mostly Cloudy SCT026 BKN031 27.3 22.6 76% 30 75.84 0.0
05 12:15 S 26 16.09 Mostly Cloudy SCT024 BKN032 BKN340 27.5 22.4 74% 30 75.84 0.0
05 11:55 S 19 16.09 Overcast BKN022 OVC031 26.1 22.1 79% 28 75.87 0.0
05 11:35 S 22 16.09 Overcast BKN022 OVC032 25.7 21.9 80% 27 75.9 0.0
05 11:15 S 22 G 31 16.09 Overcast SCT025 OVC033 26.1 21.9 78% 28 75.9 0.0
05 10:55 S 20 16.09 Overcast BKN026 OVC033 25.6 21.6 79% 27 75.9 0.0
05 10:35 S 19 16.09 Overcast BKN025 OVC032 25 21.2 80% 26 75.9 0.0
05 10:15 S 20 16.09 Overcast BKN023 OVC032 25.6 21 76% 27 75.9 0.0
05 09:55 S 20 16.09 Mostly Cloudy BKN024 BKN032 26.1 21.4 75% 28 75.87 0.0
05 09:35 S 24 16.09 Overcast BKN022 OVC030 24.8 20.7 78% 26 75.9 0.0
05 09:15 S 15 16.09 Mostly Cloudy SCT021 BKN030 24.9 21 79% 26 75.87 0.0
05 08:55 S 22 16.09 Fair CLR 24.3 21.2 83% 25 75.87 0.0
05 08:35 S 20 16.09 Fair CLR 23.5 21.3 88% 75.87 0.0
05 08:15 S 13 16.09 Fair CLR 22.6 21.6 94% 75.87 0.0
05 07:55 S 7 16.09 Fair CLR 21.2 21.2 100% 75.87 0.0
05 07:35 S 7 14.48 Fair CLR 20.3 20.3 100% 75.84 0.0
05 07:15 S 9 16.09 Fair CLR 19.5 19.5 100% 75.84 0.0
05 06:55 S 9 16.09 Fair CLR 18.8 18.8 18.8 15.9 100% 75.82 0.0
05 06:35 S 7 16.09 Fair CLR 18.2 18.2 100% 75.84 0.0
05 06:15 S 7 16.09 Fair CLR 18.2 18.2 100% 75.82 0.0
05 05:55 S 7 16.09 A Few Clouds FEW032 18 18 100% 75.84 0.0
05 05:35 S 6 16.09 Fair CLR 17.6 17.6 100% 75.84 0.0
05 05:15 S 7 16.09 A Few Clouds FEW030 17.4 17.4 100% 75.82 0.0
05 04:55 Calm 16.09 Fair CLR 16.5 16.5 100% 75.84 0.0
05 04:35 Calm 16.09 Fair CLR 16.5 16.5 100% 75.84 0.0
05 04:15 Calm 16.09 Fair CLR 16.7 16.7 100% 75.84 0.0
05 03:55 SE 6 16.09 Fair CLR 17 17 100% 75.82 0.0
05 03:35 SE 6 16.09 Fair CLR 17.7 17.7 100% 75.84 0.0
05 03:15 SE 6 16.09 Fair CLR 17.9 17.8 99% 75.82 0.0
05 02:55 S 7 16.09 A Few Clouds FEW031 17.6 17.6 100% 75.84 0.0
05 02:35 S 7 16.09 Mostly Cloudy BKN031 17.1 16.9 99% 75.84 0.0
05 02:15 S 6 16.09 Mostly Cloudy BKN031 16.6 16.6 100% 75.87 0.0
05 01:55 S 6 16.09 A Few Clouds FEW031 16.5 16.5 100% 75.9 0.0
05 01:35 S 6 16.09 Fair CLR 16.4 16.1 98% 75.9 0.0
05 01:15 Calm 16.09 Fair CLR 16 16 100% 75.92 0.0
05 00:55 Calm 16.09 Fair CLR 16.2 16.2 21.3 15.7 100% 75.92 0.0
05 00:35 Calm 16.09 Fair CLR 16 15.9 99% 75.95 0.0
05 00:15 Calm 16.09 Fair CLR 16.5 16.3 99% 75.95 0.0
04 23:55 S 6 16.09 Fair CLR 16.4 16.1 98% 75.97 0.0
04 23:35 S 6 16.09 Fair CLR 16.7 15.9 95% 75.97 0.0
04 23:15 S 6 16.09 Fair CLR 16.8 15.9 94% 75.97 0.0
04 22:55 Calm 16.09 Fair CLR 17.2 15.3 89% 76 0.0
04 22:35 S 6 16.09 Fair CLR 17.7 15.3 86% 75.97 0.0
04 22:15 S 7 16.09 Fair CLR 17.4 15 86% 75.97 0.0
04 21:55 S 7 16.09 Fair CLR 18.2 14.8 81% 75.97 0.0
04 21:35 S 9 16.09 Fair CLR 18.3 14.6 79% 75.95 0.0
04 21:15 S 11 16.09 Fair CLR 17.9 14.5 81% 75.95 0.0
04 20:55 S 7 16.09 Fair CLR 18.6 15 80% 75.95 0.0
04 20:35 S 7 16.09 Fair CLR 18.6 14.8 79% 75.95 0.0
04 20:15 S 7 16.09 Fair CLR 18.9 14.4 75% 75.95 0.0
04 19:55 S 11 16.09 Fair CLR 19.7 14.1 70% 75.97 0.0
04 19:35 S 11 14.48 Fair CLR 20.2 13.9 67% 75.97 0.0
04 19:15 S 11 14.48 Fair CLR 21 13.8 64% 75.95 0.0
04 18:55 S 11 16.09 Fair CLR 22.1 14.1 25 22.1 61% 75.97 0.0
04 18:35 S 17 16.09 Fair CLR 22.3 13.4 57% 76 0.0
04 18:15 S 15 16.09 Fair CLR 23.4 13.3 53% 76.02 0.0
04 17:55 S 19 16.09 Fair CLR 23.9 13.2 51% 25 76.02 0.0
04 17:35 S 15 16.09 Fair CLR 24.2 13.4 51% 25 76.02 0.0
04 17:15 S 20 16.09 Fair CLR 24.3 13.4 51% 26 76.02 0.0
04 16:35 S 13 16.09 Fair CLR 24.6 13 49% 26 76.07 0.0
04 16:15 S 11 16.09 A Few Clouds FEW050 24.8 13 48% 26 76.1 0.0
04 15:55 S 15 16.09 A Few Clouds FEW055 24.7 12.9 48% 26 76.1 0.0
04 15:35 SE 9 16.09 Fair CLR 24.7 12.5 47% 26 76.1 0.0
04 15:15 S 19 16.09 Fair CLR 24.7 12.4 46% 26 76.12 0.0
04 14:55 S 19 16.09 Fair CLR 24.5 11.9 45% 26 76.15 0.0
04 14:35 S 15 16.09 Fair CLR 24.6 11.9 45% 26 76.17 0.0
04 14:15 SW 15 G 28 16.09 Fair CLR 24.8 11.8 44% 26 76.2 0.0
04 13:55 S 19 16.09 Fair CLR 24.7 11.9 45% 26 76.2 0.0
04 13:35 S 15 16.09 A Few Clouds FEW310 24.5 11.9 45% 26 76.23 0.0
04 13:15 S 28 16.09 Partly Cloudy FEW270 SCT380 24.6 11.6 44% 26 76.23 0.0
04 12:55 S 19 G 31 16.09 A Few Clouds FEW280 24.6 11.6 24.8 11 44% 26 76.25 0.0
04 12:35 S 22 G 30 16.09 A Few Clouds FEW290 24.7 11.5 44% 26 76.28 0.0
04 12:15 S 17 16.09 A Few Clouds FEW300 24.3 11.5 45% 25 76.3 0.0
04 11:55 S 17 G 31 16.09 A Few Clouds FEW055 24.3 10.9 43% 25 76.3 0.0
04 11:35 S 17 16.09 A Few Clouds FEW055 23.8 11.6 46% 76.3 0.0
04 11:15 S 13 16.09 Fair CLR 24.2 12.1 47% 25 76.3 0.0
04 10:55 S 20 16.09 Fair CLR 23.5 10.7 45% 76.3 0.0
04 10:35 S 15 16.09 Fair CLR 23.5 10.9 45% 76.33 0.0
04 10:15 S 17 16.09 Fair CLR 23.3 10.6 45% 76.33 0.0
04 09:55 S 15 16.09 Fair CLR 23 10.4 45% 76.33 0.0
04 09:35 S 9 16.09 Fair CLR 22.5 10.2 46% 76.33 0.0
04 09:15 S 15 16.09 Fair CLR 21.7 10.9 50% 76.33 0.0
04 08:55 S 11 16.09 Fair CLR 21.1 14 64% 76.33 0.0
04 08:35 S 9 16.09 Fair CLR 20 15.1 74% 76.33 0.0
04 08:15 S 7 16.09 Fair CLR 18.3 15.6 84% 76.33 0.0
04 07:55 Calm 16.09 Fair CLR 14.9 14.9 100% 76.33 0.0
04 07:35 Calm 16.09 Fair CLR 13.8 13.8 100% 76.3 0.0
04 07:15 Calm 14.48 Fair CLR 11.8 11.8 100% 76.3 0.0
04 06:55 Calm 2.01 Fog/Mist CLR 10.9 10.9 12.8 10.2 100% 76.28 0.0
04 06:35 Calm 0.40 Fog CLR 11 11 100% 76.28 0.0
04 06:15 Calm 11.27 Fair CLR 11.3 11.3 100% 76.25 0.0
04 05:55 Calm 14.48 Fair CLR 11.2 11.2 100% 76.25 0.0
04 05:35 Calm 16.09 Fair CLR 11.6 11.6 100% 76.28 0.0
04 05:15 Calm 14.48 Fair CLR 12 12 100% 76.28 0.0
04 04:55 Calm 16.09 Fair CLR 12.4 12.4 100% 76.28 0.0
04 04:35 Calm 14.48 Fair CLR 12.3 12.3 100% 76.28 0.0
04 04:15 Calm 11.27 Fair CLR 11.8 11.8 100% 76.25 0.0
04 03:55 Calm 4.83 Fog/Mist CLR 11.4 11.4 100% 76.28 0.0
04 03:35 Calm 16.09 Fair CLR 11.6 11.6 100% 76.3 0.0
04 03:15 Calm 16.09 Fair CLR 12.1 12.1 100% 76.3 0.0
04 02:55 Calm 14.48 Fair CLR 12.2 12.2 100% 76.3 0.0
04 02:35 Calm 16.09 Fair CLR 12.2 12.2 100% 76.33 0.0
04 02:15 Calm 14.48 Fair CLR 11.7 11.7 100% 76.35 0.0
Date Time (cdt) Wind (kph) Vis. (km) Weather Sky Cond. Air Dwpt Max. Min. Relative Humidity Wind Chill (°C) Heat Index (°C) altimeter (cm) sea level (mb) 1 hr 3 hr 6 hr
6 hour
Temperature (ºC) Pressure Precipitation (cm)